AAL407 KPDX-KSAC
Flight info
| Callsign | AAL407 |
|---|---|
| Flight time | 1h 11m |
| Altitude | 37000 |
| Route | HRMNS6 HYJOE LMT J65 RBL |
| Aircraft | A321/M-SDE3FGHIRWY/LB1 |
Departure
| Time | 2026-04-24 21:01 |
|---|---|
| Airport | Portland International Airport (KPDX) |
Arrival
| Time | 2026-04-24 22:13 |
|---|---|
| Airport | Sacramento Executive Airport (KSAC) |
| Time | Latitude | Longitude | Altitude | Speed | Heading |
|---|---|---|---|---|---|
| 2026-04-24 20:46 | 45.59213 | -122.59643 | 45 ft | 0 kts | 198° |
| 2026-04-24 20:52 | 45.59223 | -122.59638 | 45 ft | 2 kts | 198° |
| 2026-04-24 20:53 | 45.59241 | -122.59630 | 45 ft | 3 kts | 198° |
| 2026-04-24 20:53 | 45.59260 | -122.59622 | 45 ft | 3 kts | 198° |
| 2026-04-24 20:53 | 45.59279 | -122.59613 | 45 ft | 3 kts | 198° |
| 2026-04-24 20:53 | 45.59292 | -122.59607 | 45 ft | 0 kts | 198° |
| 2026-04-24 20:54 | 45.59291 | -122.59607 | 45 ft | 0 kts | 198° |
| 2026-04-24 20:54 | 45.59270 | -122.59585 | 45 ft | 0 kts | 112° |
| 2026-04-24 20:54 | 45.59269 | -122.59580 | 45 ft | 0 kts | 111° |
| 2026-04-24 20:54 | 45.59265 | -122.59564 | 45 ft | 0 kts | 110° |
| 2026-04-24 20:55 | 45.59248 | -122.59504 | 45 ft | 16 kts | 112° |
| 2026-04-24 20:55 | 45.59211 | -122.59298 | 45 ft | 24 kts | 94° |
| 2026-04-24 20:55 | 45.59176 | -122.59103 | 45 ft | 20 kts | 120° |
| 2026-04-24 20:55 | 45.59106 | -122.58929 | 45 ft | 20 kts | 120° |
| 2026-04-24 20:56 | 45.59035 | -122.58751 | 45 ft | 21 kts | 119° |
| 2026-04-24 20:56 | 45.58965 | -122.58570 | 45 ft | 21 kts | 119° |
| 2026-04-24 20:56 | 45.58893 | -122.58386 | 45 ft | 21 kts | 119° |
| 2026-04-24 20:56 | 45.58820 | -122.58201 | 45 ft | 21 kts | 119° |
| 2026-04-24 20:57 | 45.58747 | -122.58013 | 45 ft | 22 kts | 118° |
| 2026-04-24 20:57 | 45.58674 | -122.57822 | 45 ft | 22 kts | 119° |
| 2026-04-24 20:57 | 45.58600 | -122.57630 | 45 ft | 22 kts | 118° |
| 2026-04-24 20:57 | 45.58526 | -122.57434 | 45 ft | 22 kts | 118° |
| 2026-04-24 20:58 | 45.58451 | -122.57236 | 45 ft | 23 kts | 118° |
| 2026-04-24 20:58 | 45.58374 | -122.57036 | 45 ft | 23 kts | 118° |
| 2026-04-24 20:58 | 45.58371 | -122.56894 | 45 ft | 14 kts | 28° |
| 2026-04-24 20:58 | 45.58453 | -122.56947 | 45 ft | 15 kts | 300° |
| 2026-04-24 20:59 | 45.58460 | -122.56964 | 45 ft | 0 kts | 300° |
| 2026-04-24 21:01 | 45.58478 | -122.57009 | 45 ft | 30 kts | 300° |
| 2026-04-24 21:01 | 45.58722 | -122.57618 | 45 ft | 110 kts | 299° |
| 2026-04-24 21:01 | 45.59205 | -122.58862 | 77 ft | 167 kts | 299° |
| 2026-04-24 21:01 | 45.59770 | -122.60377 | 704 ft | 177 kts | 296° |
| 2026-04-24 21:02 | 45.60300 | -122.61995 | 1682 ft | 184 kts | 296° |
| 2026-04-24 21:02 | 45.60910 | -122.63775 | 2279 ft | 223 kts | 297° |
| 2026-04-24 21:02 | 45.61532 | -122.66089 | 2627 ft | 263 kts | 291° |
| 2026-04-24 21:02 | 45.62326 | -122.68425 | 3684 ft | 263 kts | 299° |
| 2026-04-24 21:03 | 45.63230 | -122.70744 | 4540 ft | 269 kts | 300° |
| 2026-04-24 21:03 | 45.64159 | -122.73084 | 5409 ft | 273 kts | 300° |
| 2026-04-24 21:03 | 45.65113 | -122.75466 | 6366 ft | 277 kts | 300° |
| 2026-04-24 21:03 | 45.66079 | -122.77870 | 7305 ft | 282 kts | 300° |
| 2026-04-24 21:04 | 45.66842 | -122.80474 | 8001 ft | 289 kts | 282° |
| 2026-04-24 21:04 | 45.66839 | -122.83350 | 8727 ft | 291 kts | 259° |
| 2026-04-24 21:04 | 45.66326 | -122.86123 | 9430 ft | 295 kts | 254° |
| 2026-04-24 21:04 | 45.65579 | -122.88883 | 10033 ft | 301 kts | 238° |
| 2026-04-24 21:05 | 45.64178 | -122.91071 | 10700 ft | 302 kts | 216° |
| 2026-04-24 21:05 | 45.62275 | -122.92401 | 11083 ft | 314 kts | 195° |
| 2026-04-24 21:05 | 45.60031 | -122.92699 | 11166 ft | 336 kts | 174° |
| 2026-04-24 21:05 | 45.57734 | -122.91829 | 11495 ft | 346 kts | 158° |
| 2026-04-24 21:06 | 45.55487 | -122.90575 | 12174 ft | 349 kts | 159° |
| 2026-04-24 21:06 | 45.53219 | -122.89264 | 12728 ft | 353 kts | 155° |
| 2026-04-24 21:06 | 45.51040 | -122.87615 | 13305 ft | 356 kts | 148° |
| 2026-04-24 21:06 | 45.48920 | -122.85744 | 13853 ft | 360 kts | 147° |
| 2026-04-24 21:07 | 45.46785 | -122.83848 | 14384 ft | 364 kts | 147° |
| 2026-04-24 21:07 | 45.44626 | -122.81938 | 14901 ft | 367 kts | 148° |
| 2026-04-24 21:07 | 45.42465 | -122.80037 | 15396 ft | 371 kts | 148° |
| 2026-04-24 21:07 | 45.40262 | -122.78105 | 15884 ft | 374 kts | 148° |
| 2026-04-24 21:08 | 45.38032 | -122.76154 | 16372 ft | 377 kts | 148° |
| 2026-04-24 21:08 | 45.35795 | -122.74200 | 16904 ft | 378 kts | 148° |
| 2026-04-24 21:08 | 45.33529 | -122.72225 | 17323 ft | 382 kts | 148° |
| 2026-04-24 21:08 | 45.31254 | -122.70244 | 17774 ft | 385 kts | 148° |
| 2026-04-24 21:09 | 45.28955 | -122.68245 | 18196 ft | 389 kts | 148° |
| 2026-04-24 21:09 | 45.26638 | -122.66233 | 18702 ft | 393 kts | 148° |
| 2026-04-24 21:09 | 45.24299 | -122.64203 | 19309 ft | 396 kts | 148° |
| 2026-04-24 21:09 | 45.21926 | -122.62146 | 19940 ft | 401 kts | 148° |
| 2026-04-24 21:10 | 45.19528 | -122.60070 | 20560 ft | 406 kts | 148° |
| 2026-04-24 21:10 | 45.17109 | -122.57976 | 21137 ft | 411 kts | 148° |
| 2026-04-24 21:10 | 45.14683 | -122.55879 | 21700 ft | 415 kts | 148° |
| 2026-04-24 21:10 | 45.12200 | -122.53734 | 22240 ft | 420 kts | 148° |
| 2026-04-24 21:11 | 45.09697 | -122.51573 | 22762 ft | 424 kts | 148° |
| 2026-04-24 21:11 | 45.07163 | -122.49387 | 23264 ft | 428 kts | 148° |
| 2026-04-24 21:11 | 45.04598 | -122.47177 | 23750 ft | 432 kts | 148° |
| 2026-04-24 21:11 | 45.02015 | -122.44953 | 24214 ft | 436 kts | 148° |
| 2026-04-24 21:12 | 44.99410 | -122.42711 | 24663 ft | 440 kts | 148° |
| 2026-04-24 21:12 | 44.96685 | -122.40673 | 25083 ft | 445 kts | 155° |
| 2026-04-24 21:12 | 44.93779 | -122.39153 | 25494 ft | 448 kts | 163° |
| 2026-04-24 21:12 | 44.90720 | -122.38160 | 25886 ft | 452 kts | 168° |
| 2026-04-24 21:13 | 44.87622 | -122.37321 | 26252 ft | 456 kts | 169° |
| 2026-04-24 21:13 | 44.84531 | -122.36516 | 26602 ft | 459 kts | 169° |
| 2026-04-24 21:13 | 44.81372 | -122.35713 | 26943 ft | 462 kts | 169° |
| 2026-04-24 21:13 | 44.78199 | -122.34915 | 27263 ft | 465 kts | 169° |
| 2026-04-24 21:14 | 44.74997 | -122.34116 | 27576 ft | 468 kts | 169° |
| 2026-04-24 21:14 | 44.71783 | -122.33316 | 27875 ft | 471 kts | 169° |
| 2026-04-24 21:14 | 44.68542 | -122.32512 | 28159 ft | 473 kts | 169° |
| 2026-04-24 21:14 | 44.65301 | -122.31709 | 28434 ft | 476 kts | 169° |
| 2026-04-24 21:15 | 44.62011 | -122.30896 | 28696 ft | 478 kts | 169° |
| 2026-04-24 21:15 | 44.58727 | -122.30085 | 28946 ft | 481 kts | 169° |
| 2026-04-24 21:15 | 44.55458 | -122.29280 | 29183 ft | 483 kts | 169° |
| 2026-04-24 21:15 | 44.52142 | -122.28463 | 29416 ft | 485 kts | 169° |
| 2026-04-24 21:16 | 44.48808 | -122.27644 | 29638 ft | 488 kts | 169° |
| 2026-04-24 21:16 | 44.45450 | -122.26820 | 29857 ft | 490 kts | 169° |
| 2026-04-24 21:16 | 44.42089 | -122.25996 | 30073 ft | 492 kts | 169° |
| 2026-04-24 21:16 | 44.38708 | -122.25169 | 30286 ft | 494 kts | 169° |
| 2026-04-24 21:17 | 44.35328 | -122.24343 | 30494 ft | 496 kts | 169° |
| 2026-04-24 21:17 | 44.31909 | -122.23509 | 30700 ft | 498 kts | 169° |
| 2026-04-24 21:17 | 44.28479 | -122.22674 | 30903 ft | 500 kts | 169° |
| 2026-04-24 21:17 | 44.25044 | -122.21838 | 31101 ft | 502 kts | 169° |
| 2026-04-24 21:18 | 44.21590 | -122.20999 | 31301 ft | 504 kts | 169° |
| 2026-04-24 21:18 | 44.18130 | -122.20160 | 31497 ft | 506 kts | 169° |
| 2026-04-24 21:18 | 44.14677 | -122.19323 | 31687 ft | 508 kts | 169° |
| 2026-04-24 21:18 | 44.11191 | -122.18480 | 31876 ft | 510 kts | 169° |
| 2026-04-24 21:19 | 44.07689 | -122.17634 | 32063 ft | 512 kts | 169° |
| 2026-04-24 21:19 | 44.04163 | -122.16783 | 32250 ft | 514 kts | 169° |
| 2026-04-24 21:19 | 44.00636 | -122.15933 | 32434 ft | 516 kts | 169° |
| 2026-04-24 21:19 | 43.97094 | -122.15080 | 32615 ft | 518 kts | 169° |
| 2026-04-24 21:20 | 43.89962 | -122.13366 | 32971 ft | 521 kts | 170° |
| 2026-04-24 21:20 | 43.86420 | -122.12517 | 33142 ft | 523 kts | 170° |
| 2026-04-24 21:20 | 43.82829 | -122.11657 | 33329 ft | 524 kts | 170° |
| 2026-04-24 21:21 | 43.79235 | -122.10797 | 33577 ft | 524 kts | 170° |
| 2026-04-24 21:21 | 43.75646 | -122.09940 | 33843 ft | 524 kts | 170° |
| 2026-04-24 21:21 | 43.72051 | -122.09082 | 34087 ft | 524 kts | 170° |
| 2026-04-24 21:21 | 43.68446 | -122.08223 | 34319 ft | 524 kts | 170° |
| 2026-04-24 21:22 | 43.64850 | -122.07367 | 34551 ft | 524 kts | 170° |
| 2026-04-24 21:22 | 43.61242 | -122.06509 | 34783 ft | 524 kts | 170° |
| 2026-04-24 21:22 | 43.57697 | -122.05667 | 35006 ft | 524 kts | 170° |
| 2026-04-24 21:22 | 43.54064 | -122.04806 | 35232 ft | 524 kts | 170° |
| 2026-04-24 21:23 | 43.50506 | -122.03963 | 35451 ft | 524 kts | 170° |
| 2026-04-24 21:23 | 43.46914 | -122.03113 | 35668 ft | 524 kts | 170° |
| 2026-04-24 21:23 | 43.43320 | -122.02264 | 35883 ft | 524 kts | 170° |
| 2026-04-24 21:23 | 43.39725 | -122.01415 | 36095 ft | 524 kts | 170° |
| 2026-04-24 21:24 | 43.36142 | -122.00571 | 36305 ft | 524 kts | 170° |
| 2026-04-24 21:24 | 43.32581 | -121.99732 | 36510 ft | 524 kts | 170° |
| 2026-04-24 21:24 | 43.28985 | -121.98887 | 36720 ft | 523 kts | 170° |
| 2026-04-24 21:24 | 43.25384 | -121.98041 | 36944 ft | 524 kts | 170° |
| 2026-04-24 21:25 | 43.21767 | -121.97193 | 37023 ft | 529 kts | 170° |
| 2026-04-24 21:25 | 43.14484 | -121.95487 | 37046 ft | 527 kts | 170° |
| 2026-04-24 21:26 | 43.07267 | -121.93802 | 37048 ft | 524 kts | 170° |
| 2026-04-24 21:26 | 43.00077 | -121.92126 | 37049 ft | 524 kts | 170° |
| 2026-04-24 21:27 | 42.92913 | -121.90461 | 37049 ft | 524 kts | 170° |
| 2026-04-24 21:27 | 42.85712 | -121.88791 | 37049 ft | 524 kts | 170° |
| 2026-04-24 21:28 | 42.78521 | -121.87127 | 37049 ft | 524 kts | 170° |
| 2026-04-24 21:28 | 42.71353 | -121.85473 | 37049 ft | 524 kts | 170° |
| 2026-04-24 21:29 | 42.64171 | -121.83819 | 37049 ft | 524 kts | 170° |
| 2026-04-24 21:29 | 42.57001 | -121.82172 | 37049 ft | 524 kts | 170° |
| 2026-04-24 21:30 | 42.49810 | -121.80524 | 37049 ft | 524 kts | 170° |
| 2026-04-24 21:30 | 42.42617 | -121.78880 | 37049 ft | 524 kts | 170° |
| 2026-04-24 21:31 | 42.35412 | -121.77236 | 37049 ft | 524 kts | 170° |
| 2026-04-24 21:31 | 42.28212 | -121.75598 | 37049 ft | 524 kts | 170° |
| 2026-04-24 21:32 | 42.21065 | -121.73976 | 37049 ft | 524 kts | 171° |
| 2026-04-24 21:32 | 42.13794 | -121.73570 | 37048 ft | 525 kts | 185° |
| 2026-04-24 21:33 | 42.06576 | -121.75090 | 37049 ft | 525 kts | 189° |
| 2026-04-24 21:33 | 41.99381 | -121.76856 | 37049 ft | 525 kts | 190° |
| 2026-04-24 21:34 | 41.92190 | -121.78667 | 37049 ft | 525 kts | 190° |
| 2026-04-24 21:34 | 41.85013 | -121.80480 | 37049 ft | 525 kts | 190° |
| 2026-04-24 21:35 | 41.77874 | -121.82285 | 37049 ft | 525 kts | 190° |
| 2026-04-24 21:35 | 41.70687 | -121.84100 | 37049 ft | 525 kts | 190° |
| 2026-04-24 21:36 | 41.63510 | -121.85910 | 37049 ft | 525 kts | 190° |
| 2026-04-24 21:36 | 41.56324 | -121.87718 | 37049 ft | 525 kts | 190° |
| 2026-04-24 21:37 | 41.49143 | -121.89522 | 37049 ft | 525 kts | 190° |
| 2026-04-24 21:37 | 41.41962 | -121.91321 | 37049 ft | 525 kts | 190° |
| 2026-04-24 21:38 | 41.34812 | -121.93109 | 37049 ft | 525 kts | 190° |
| 2026-04-24 21:38 | 41.27628 | -121.94901 | 37049 ft | 525 kts | 190° |
| 2026-04-24 21:39 | 41.20443 | -121.96689 | 37049 ft | 525 kts | 190° |
| 2026-04-24 21:39 | 41.13297 | -121.98463 | 37049 ft | 525 kts | 190° |
| 2026-04-24 21:40 | 41.06097 | -122.00247 | 37049 ft | 525 kts | 190° |
| 2026-04-24 21:40 | 41.00127 | -122.01723 | 37049 ft | 525 kts | 190° |
| 2026-04-24 21:41 | 40.91764 | -122.03785 | 37049 ft | 525 kts | 190° |
| 2026-04-24 21:41 | 40.85746 | -122.05266 | 37049 ft | 525 kts | 190° |
| 2026-04-24 21:42 | 40.78565 | -122.07029 | 37049 ft | 525 kts | 190° |
| 2026-04-24 21:42 | 40.71416 | -122.08781 | 37049 ft | 525 kts | 190° |
| 2026-04-24 21:43 | 40.64231 | -122.10537 | 37049 ft | 525 kts | 190° |
| 2026-04-24 21:43 | 40.57031 | -122.12294 | 36978 ft | 522 kts | 190° |
| 2026-04-24 21:43 | 40.53467 | -122.13162 | 36074 ft | 522 kts | 190° |
| 2026-04-24 21:44 | 40.49911 | -122.14026 | 34961 ft | 526 kts | 190° |
| 2026-04-24 21:44 | 40.46303 | -122.14903 | 33837 ft | 528 kts | 190° |
| 2026-04-24 21:44 | 40.42679 | -122.15783 | 32779 ft | 529 kts | 190° |
| 2026-04-24 21:44 | 40.39083 | -122.16655 | 32213 ft | 518 kts | 190° |
| 2026-04-24 21:45 | 40.35547 | -122.17511 | 31361 ft | 514 kts | 190° |
| 2026-04-24 21:45 | 40.32069 | -122.18353 | 30801 ft | 504 kts | 190° |
| 2026-04-24 21:45 | 40.28629 | -122.19184 | 30049 ft | 499 kts | 190° |
| 2026-04-24 21:45 | 40.25247 | -122.20001 | 29580 ft | 488 kts | 190° |
| 2026-04-24 21:46 | 40.21936 | -122.20799 | 29107 ft | 479 kts | 190° |
| 2026-04-24 21:46 | 40.18717 | -122.21575 | 28648 ft | 470 kts | 190° |
| 2026-04-24 21:46 | 40.15536 | -122.22340 | 28195 ft | 462 kts | 190° |
| 2026-04-24 21:46 | 40.12373 | -122.22921 | 27739 ft | 454 kts | 183° |
| 2026-04-24 21:47 | 40.09210 | -122.22834 | 26925 ft | 454 kts | 173° |
| 2026-04-24 21:47 | 40.06116 | -122.22002 | 26214 ft | 452 kts | 165° |
| 2026-04-24 21:47 | 40.03092 | -122.21028 | 25788 ft | 444 kts | 165° |
| 2026-04-24 21:47 | 40.00118 | -122.20022 | 25357 ft | 436 kts | 165° |
| 2026-04-24 21:48 | 39.97213 | -122.19005 | 24936 ft | 428 kts | 164° |
| 2026-04-24 21:48 | 39.94361 | -122.17995 | 24523 ft | 421 kts | 164° |
| 2026-04-24 21:48 | 39.91560 | -122.16998 | 24118 ft | 414 kts | 164° |
| 2026-04-24 21:48 | 39.88804 | -122.16014 | 23720 ft | 407 kts | 164° |
| 2026-04-24 21:49 | 39.86125 | -122.15056 | 23333 ft | 401 kts | 164° |
| 2026-04-24 21:49 | 39.83451 | -122.14100 | 22949 ft | 396 kts | 164° |
| 2026-04-24 21:49 | 39.80812 | -122.13156 | 22570 ft | 391 kts | 164° |
| 2026-04-24 21:49 | 39.78199 | -122.12221 | 22196 ft | 385 kts | 164° |
| 2026-04-24 21:50 | 39.75635 | -122.11304 | 21829 ft | 381 kts | 164° |
| 2026-04-24 21:50 | 39.73095 | -122.10396 | 21467 ft | 376 kts | 164° |
| 2026-04-24 21:50 | 39.70583 | -122.09498 | 21109 ft | 371 kts | 164° |
| 2026-04-24 21:50 | 39.68097 | -122.08610 | 20757 ft | 368 kts | 164° |
| 2026-04-24 21:51 | 39.65662 | -122.07741 | 20412 ft | 366 kts | 164° |
| 2026-04-24 21:51 | 39.63214 | -122.06868 | 20067 ft | 364 kts | 164° |
| 2026-04-24 21:51 | 39.60778 | -122.05999 | 19724 ft | 361 kts | 164° |
| 2026-04-24 21:51 | 39.58362 | -122.05138 | 19385 ft | 359 kts | 164° |
| 2026-04-24 21:52 | 39.55962 | -122.04284 | 19048 ft | 356 kts | 164° |
| 2026-04-24 21:52 | 39.53570 | -122.03433 | 18713 ft | 354 kts | 164° |
| 2026-04-24 21:52 | 39.51223 | -122.02599 | 18384 ft | 352 kts | 164° |
| 2026-04-24 21:52 | 39.48843 | -122.01753 | 18052 ft | 350 kts | 164° |
| 2026-04-24 21:53 | 39.46531 | -122.00932 | 17729 ft | 347 kts | 164° |
| 2026-04-24 21:53 | 39.44210 | -122.00109 | 17405 ft | 346 kts | 164° |
| 2026-04-24 21:53 | 39.41886 | -121.99285 | 17081 ft | 343 kts | 164° |
| 2026-04-24 21:53 | 39.39586 | -121.98470 | 16761 ft | 341 kts | 164° |
| 2026-04-24 21:54 | 39.37308 | -121.97664 | 16443 ft | 339 kts | 164° |
| 2026-04-24 21:54 | 39.35027 | -121.96857 | 16125 ft | 337 kts | 164° |
| 2026-04-24 21:54 | 39.32774 | -121.96061 | 15811 ft | 335 kts | 164° |
| 2026-04-24 21:54 | 39.30526 | -121.95267 | 15496 ft | 333 kts | 164° |
| 2026-04-24 21:55 | 39.28299 | -121.94481 | 15293 ft | 327 kts | 164° |
| 2026-04-24 21:55 | 39.26167 | -121.93729 | 15097 ft | 319 kts | 164° |
| 2026-04-24 21:55 | 39.24023 | -121.92973 | 14697 ft | 318 kts | 164° |
| 2026-04-24 21:55 | 39.21895 | -121.92223 | 14312 ft | 317 kts | 164° |
| 2026-04-24 21:56 | 39.19778 | -121.91478 | 14049 ft | 312 kts | 164° |
| 2026-04-24 21:56 | 39.17680 | -121.90740 | 13665 ft | 312 kts | 164° |
| 2026-04-24 21:56 | 39.15596 | -121.90007 | 13327 ft | 310 kts | 164° |
| 2026-04-24 21:56 | 39.13522 | -121.89278 | 13025 ft | 306 kts | 164° |
| 2026-04-24 21:57 | 39.11468 | -121.88557 | 12702 ft | 304 kts | 164° |
| 2026-04-24 21:57 | 39.09436 | -121.87844 | 12409 ft | 301 kts | 164° |
| 2026-04-24 21:57 | 39.07449 | -121.87146 | 12122 ft | 298 kts | 164° |
| 2026-04-24 21:57 | 39.05459 | -121.86449 | 11834 ft | 295 kts | 164° |
| 2026-04-24 21:58 | 39.03479 | -121.85755 | 11548 ft | 294 kts | 164° |
| 2026-04-24 21:58 | 39.01505 | -121.85064 | 11260 ft | 293 kts | 164° |
| 2026-04-24 21:58 | 38.99549 | -121.84379 | 10971 ft | 291 kts | 164° |
| 2026-04-24 21:58 | 38.97596 | -121.83696 | 10684 ft | 290 kts | 164° |
| 2026-04-24 21:59 | 38.95650 | -121.83016 | 10395 ft | 288 kts | 164° |
| 2026-04-24 21:59 | 38.93721 | -121.82342 | 10106 ft | 286 kts | 164° |
| 2026-04-24 21:59 | 38.91834 | -121.81683 | 10006 ft | 285 kts | 164° |
| 2026-04-24 21:59 | 38.89944 | -121.81024 | 9921 ft | 275 kts | 164° |
| 2026-04-24 22:00 | 38.88133 | -121.80393 | 9833 ft | 264 kts | 164° |
| 2026-04-24 22:00 | 38.86391 | -121.79786 | 9722 ft | 254 kts | 164° |
| 2026-04-24 22:00 | 38.84676 | -121.79188 | 9317 ft | 256 kts | 164° |
| 2026-04-24 22:00 | 38.82977 | -121.78597 | 9043 ft | 253 kts | 164° |
| 2026-04-24 22:01 | 38.81277 | -121.78005 | 8731 ft | 250 kts | 164° |
| 2026-04-24 22:01 | 38.79607 | -121.77424 | 8446 ft | 247 kts | 164° |
| 2026-04-24 22:01 | 38.77979 | -121.76858 | 8192 ft | 243 kts | 164° |
| 2026-04-24 22:01 | 38.76346 | -121.76291 | 7945 ft | 244 kts | 164° |
| 2026-04-24 22:02 | 38.74715 | -121.75724 | 7686 ft | 242 kts | 164° |
| 2026-04-24 22:02 | 38.73094 | -121.75161 | 7435 ft | 241 kts | 164° |
| 2026-04-24 22:02 | 38.71487 | -121.74603 | 7236 ft | 236 kts | 164° |
| 2026-04-24 22:02 | 38.69923 | -121.74061 | 6971 ft | 232 kts | 164° |
| 2026-04-24 22:03 | 38.68371 | -121.73523 | 6683 ft | 228 kts | 164° |
| 2026-04-24 22:03 | 38.66851 | -121.72996 | 6438 ft | 225 kts | 164° |
| 2026-04-24 22:03 | 38.65332 | -121.72470 | 6200 ft | 226 kts | 164° |
| 2026-04-24 22:03 | 38.63817 | -121.72004 | 5942 ft | 224 kts | 169° |
| 2026-04-24 22:04 | 38.62290 | -121.71762 | 5701 ft | 224 kts | 173° |
| 2026-04-24 22:04 | 38.60747 | -121.71560 | 5449 ft | 222 kts | 173° |
| 2026-04-24 22:04 | 38.59213 | -121.71359 | 5200 ft | 221 kts | 173° |
| 2026-04-24 22:04 | 38.57684 | -121.71157 | 4948 ft | 220 kts | 173° |
| 2026-04-24 22:05 | 38.56162 | -121.70957 | 4698 ft | 219 kts | 173° |
| 2026-04-24 22:05 | 38.54652 | -121.70758 | 4448 ft | 218 kts | 173° |
| 2026-04-24 22:05 | 38.53144 | -121.70560 | 4198 ft | 217 kts | 173° |
| 2026-04-24 22:05 | 38.51640 | -121.70362 | 3947 ft | 216 kts | 173° |
| 2026-04-24 22:06 | 38.50142 | -121.70165 | 3695 ft | 215 kts | 173° |
| 2026-04-24 22:06 | 38.48658 | -121.69969 | 3445 ft | 214 kts | 173° |
| 2026-04-24 22:06 | 38.47198 | -121.69777 | 3199 ft | 213 kts | 173° |
| 2026-04-24 22:06 | 38.45735 | -121.69585 | 3001 ft | 206 kts | 173° |
| 2026-04-24 22:07 | 38.44360 | -121.69407 | 2927 ft | 196 kts | 173° |
| 2026-04-24 22:07 | 38.43004 | -121.69232 | 2944 ft | 194 kts | 173° |
| 2026-04-24 22:07 | 38.41663 | -121.69059 | 2970 ft | 192 kts | 173° |
| 2026-04-24 22:07 | 38.40327 | -121.68887 | 2953 ft | 192 kts | 173° |
| 2026-04-24 22:08 | 38.39001 | -121.68689 | 2943 ft | 192 kts | 165° |
| 2026-04-24 22:08 | 38.37823 | -121.67919 | 2964 ft | 191 kts | 144° |
| 2026-04-24 22:08 | 38.36827 | -121.66791 | 2948 ft | 190 kts | 134° |
| 2026-04-24 22:08 | 38.35996 | -121.65503 | 2986 ft | 189 kts | 117° |
| 2026-04-24 22:09 | 38.35777 | -121.63901 | 2969 ft | 187 kts | 89° |
| 2026-04-24 22:09 | 38.35870 | -121.62243 | 2958 ft | 188 kts | 86° |
| 2026-04-24 22:09 | 38.36289 | -121.60699 | 2933 ft | 187 kts | 56° |
| 2026-04-24 22:09 | 38.37298 | -121.59659 | 2963 ft | 188 kts | 34° |
| 2026-04-24 22:10 | 38.38429 | -121.58819 | 2950 ft | 188 kts | 27° |
| 2026-04-24 22:10 | 38.39626 | -121.58126 | 2949 ft | 189 kts | 25° |
| 2026-04-24 22:10 | 38.40822 | -121.57434 | 2933 ft | 189 kts | 25° |
| 2026-04-24 22:10 | 38.42005 | -121.56746 | 2577 ft | 180 kts | 25° |
| 2026-04-24 22:11 | 38.43095 | -121.56113 | 2192 ft | 164 kts | 25° |
| 2026-04-24 22:11 | 38.44067 | -121.55494 | 1785 ft | 153 kts | 37° |
| 2026-04-24 22:11 | 38.44752 | -121.54451 | 1463 ft | 154 kts | 39° |
| 2026-04-24 22:11 | 38.45504 | -121.53593 | 1414 ft | 146 kts | 26° |
| 2026-04-24 22:12 | 38.46467 | -121.53083 | 1238 ft | 152 kts | 21° |
| 2026-04-24 22:12 | 38.47436 | -121.52565 | 982 ft | 148 kts | 24° |
| 2026-04-24 22:12 | 38.48359 | -121.51936 | 600 ft | 146 kts | 32° |
| 2026-04-24 22:12 | 38.49162 | -121.51237 | 314 ft | 136 kts | 28° |
| 2026-04-24 22:13 | 38.49935 | -121.50571 | 191 ft | 137 kts | 28° |
| 2026-04-24 22:13 | 38.50803 | -121.49864 | 62 ft | 147 kts | 33° |
| 2026-04-24 22:13 | 38.51391 | -121.49370 | 39 ft | 36 kts | 34° |
| 2026-04-24 22:13 | 38.51557 | -121.49227 | 39 ft | 24 kts | 21° |
| 2026-04-24 22:14 | 38.51692 | -121.49324 | 39 ft | 25 kts | 314° |
| 2026-04-24 22:14 | 38.51658 | -121.49410 | 39 ft | 17 kts | 172° |
| 2026-04-24 22:14 | 38.51535 | -121.49407 | 39 ft | 18 kts | 201° |
| 2026-04-24 22:14 | 38.51414 | -121.49497 | 39 ft | 21 kts | 212° |
| 2026-04-24 22:15 | 38.51361 | -121.49630 | 39 ft | 17 kts | 269° |
| 2026-04-24 22:15 | 38.51370 | -121.49751 | 39 ft | 6 kts | 285° |
| 2026-04-24 22:15 | 38.51371 | -121.49757 | 39 ft | 0 kts | 285° |
| 2026-04-24 22:17 | 38.69527 | -121.59457 | 42 ft | 0 kts | 359° |